createdAt,value
2023-05-02T00:00:03.072Z,12
2023-05-02T00:20:03.313Z,11.8
2023-05-02T00:40:02.791Z,11.7
2023-05-02T01:00:02.647Z,11.5
2023-05-02T01:20:02.879Z,11.2
2023-05-02T01:40:02.868Z,11.1
2023-05-02T02:00:03.049Z,10.8
2023-05-02T02:20:02.887Z,10.6
2023-05-02T02:40:02.706Z,10.4
2023-05-02T03:00:02.932Z,10.2
2023-05-02T03:20:02.846Z,10.3
2023-05-02T03:40:02.668Z,10.2
2023-05-02T04:00:02.678Z,10.2
2023-05-02T04:20:05.160Z,10.4
2023-05-02T04:40:02.592Z,10.6
2023-05-02T05:00:02.485Z,11
2023-05-02T05:20:02.421Z,11.6
2023-05-02T05:40:02.632Z,11.8
2023-05-02T06:00:03.110Z,12.3
2023-05-02T06:20:02.499Z,13.3
2023-05-02T06:40:02.752Z,13.7
2023-05-02T07:00:02.452Z,14.2
2023-05-02T07:20:03.021Z,15.2
2023-05-02T07:40:02.892Z,15.9
2023-05-02T08:00:03.212Z,16.1
2023-05-02T08:20:02.753Z,16.3
2023-05-02T08:40:02.715Z,14.8
2023-05-02T09:00:03.955Z,15
2023-05-02T09:20:02.962Z,14.9
2023-05-02T09:40:02.504Z,14.9
2023-05-02T10:00:03.112Z,15.3
2023-05-02T10:20:02.876Z,15.3
2023-05-02T10:40:02.410Z,15.1
2023-05-02T11:00:03.312Z,15.6
2023-05-02T11:20:02.876Z,15
2023-05-02T11:40:02.236Z,14.2
2023-05-02T12:00:02.773Z,14.1
2023-05-02T12:20:02.155Z,13.8
2023-05-02T12:40:02.923Z,13.9
2023-05-02T13:00:02.803Z,13.9
2023-05-02T13:20:02.714Z,13.7
2023-05-02T13:40:02.627Z,13.4
2023-05-02T14:00:03.163Z,13.4
2023-05-02T14:20:02.878Z,13.3
2023-05-02T14:40:03.346Z,13
2023-05-02T15:00:03.354Z,12.8
2023-05-02T15:20:04.178Z,12.5
2023-05-02T15:40:03.838Z,11.9
2023-05-02T16:00:03.743Z,11.5
2023-05-02T16:20:03.535Z,11.4
2023-05-02T16:40:04.087Z,11.3
2023-05-02T17:00:03.496Z,11.4
2023-05-02T17:20:04.254Z,11.4
2023-05-02T17:40:03.414Z,11.4
2023-05-02T18:00:04.418Z,11.1
2023-05-02T18:20:04.889Z,10.8
2023-05-02T18:40:03.380Z,10.8
2023-05-02T19:00:04.051Z,10.5
2023-05-02T19:20:03.961Z,10.4
2023-05-02T19:40:03.316Z,10.5
2023-05-02T20:00:04.040Z,10.5
2023-05-02T20:20:03.021Z,10.3
2023-05-02T20:40:03.310Z,10.2
2023-05-02T21:00:02.559Z,10.2
2023-05-02T21:20:02.835Z,10.2
2023-05-02T21:40:02.750Z,10.1
2023-05-02T22:00:02.644Z,10
2023-05-02T22:20:03.171Z,9.8
2023-05-02T22:40:02.275Z,9.6
2023-05-02T23:00:02.388Z,9.5
2023-05-02T23:20:02.546Z,9.5
2023-05-02T23:40:02.749Z,9.4
